createdAt,value
2019-02-05T00:00:38.416Z,101996.73
2019-02-05T00:03:08.838Z,101988.83
2019-02-05T00:05:37.348Z,101986.43
2019-02-05T00:08:05.901Z,101990.48
2019-02-05T00:10:34.393Z,101983.28
2019-02-05T00:13:02.827Z,101983.63
2019-02-05T00:15:31.519Z,101979.23
2019-02-05T00:18:00.033Z,101986.84
2019-02-05T00:20:28.447Z,101985.59
2019-02-05T00:22:56.882Z,101988.89
2019-02-05T00:25:25.368Z,101992.83
2019-02-05T00:27:53.817Z,101993.70
2019-02-05T00:30:22.295Z,101987.84
2019-02-05T00:32:50.744Z,101989.29
2019-02-05T00:35:19.160Z,101987.54
2019-02-05T00:37:47.604Z,101992.09
2019-02-05T00:40:17.190Z,101992.09
2019-02-05T00:42:45.632Z,101990.23
2019-02-05T00:45:18.408Z,101989.29
2019-02-05T00:47:46.845Z,101986.74
2019-02-05T00:50:16.918Z,101991.03
2019-02-05T00:52:45.321Z,101993.84
2019-02-05T00:55:15.684Z,101995.19
2019-02-05T00:57:44.205Z,101999.75
2019-02-05T01:00:27.347Z,101995.45
2019-02-05T01:02:55.855Z,101996.49
2019-02-05T01:05:24.537Z,101995.48
2019-02-05T01:07:53.120Z,101996.78
2019-02-05T01:10:22.881Z,102013.00
2019-02-05T01:12:51.471Z,102012.05
2019-02-05T01:15:23.006Z,102019.94
2019-02-05T01:17:51.984Z,102013.55
2019-02-05T01:20:21.548Z,102019.48
2019-02-05T01:22:50.059Z,102023.95
2019-02-05T01:25:19.919Z,102023.55
2019-02-05T01:27:48.879Z,102028.38
2019-02-05T01:30:22.904Z,102026.41
2019-02-05T01:32:51.479Z,102028.14
2019-02-05T01:35:20.229Z,102023.86
2019-02-05T01:37:48.753Z,102022.63
2019-02-05T01:40:19.874Z,102018.36
2019-02-05T01:42:48.490Z,102024.36
2019-02-05T01:45:18.750Z,102032.45
2019-02-05T01:47:47.554Z,102024.85
2019-02-05T01:50:18.713Z,102026.69
2019-02-05T01:52:47.158Z,102031.35
2019-02-05T01:55:15.714Z,102031.23
2019-02-05T01:57:44.598Z,102035.75
2019-02-05T02:00:21.704Z,102031.57
2019-02-05T02:02:50.220Z,102040.41
2019-02-05T02:05:18.798Z,102032.33
2019-02-05T02:07:47.504Z,102020.91
2019-02-05T02:10:19.336Z,102024.73
2019-02-05T02:12:47.849Z,102021.40
2019-02-05T02:15:16.266Z,102020.16
2019-02-05T02:17:44.716Z,102018.84
2019-02-05T02:20:16.313Z,102015.53
2019-02-05T02:22:44.900Z,102012.47
2019-02-05T02:25:14.239Z,102007.42
2019-02-05T02:27:43.093Z,102002.29
2019-02-05T02:30:24.566Z,101998.72
2019-02-05T02:32:53.012Z,102000.20
2019-02-05T02:35:21.495Z,101999.34
2019-02-05T02:37:50.291Z,102004.00
2019-02-05T02:40:18.817Z,101998.37
2019-02-05T02:42:47.302Z,102003.03
2019-02-05T02:45:16.295Z,102004.38
2019-02-05T02:47:44.793Z,102004.51
2019-02-05T02:50:17.970Z,102008.93
2019-02-05T02:52:46.766Z,102002.53
2019-02-05T02:55:15.385Z,101997.99
2019-02-05T02:57:44.839Z,101995.91
2019-02-05T03:00:20.971Z,101997.89
2019-02-05T03:02:50.159Z,101991.39
2019-02-05T03:05:20.214Z,102004.00
2019-02-05T03:07:49.154Z,102012.86
2019-02-05T03:10:20.139Z,102017.75
2019-02-05T03:12:48.630Z,102020.06
2019-02-05T03:15:17.313Z,102013.33
2019-02-05T03:17:45.731Z,102010.52
2019-02-05T03:20:15.925Z,102015.40
2019-02-05T03:22:45.826Z,102014.56
2019-02-05T03:25:17.960Z,102015.91
2019-02-05T03:27:46.615Z,102017.23
2019-02-05T03:30:17.632Z,102017.50
2019-02-05T03:32:46.164Z,102018.34
2019-02-05T03:35:15.050Z,102023.64
2019-02-05T03:37:43.622Z,102030.73
2019-02-05T03:40:21.162Z,102025.47
2019-02-05T03:42:49.586Z,102023.37
2019-02-05T03:45:18.206Z,102030.00
2019-02-05T03:47:46.699Z,102025.22
2019-02-05T03:50:15.213Z,102022.76
2019-02-05T03:52:46.550Z,102029.13
2019-02-05T03:55:41.061Z,102028.64
2019-02-05T03:58:15.304Z,102025.45
2019-02-05T04:01:07.994Z,102031.95
2019-02-05T04:04:02.288Z,102034.05
2019-02-05T04:06:42.711Z,102030.13
2019-02-05T04:09:17.543Z,102016.28
2019-02-05T04:12:08.576Z,102020.45
2019-02-05T04:14:55.344Z,102014.69
2019-02-05T04:17:38.679Z,102021.91
2019-02-05T04:20:22.559Z,102025.58
2019-02-05T04:22:54.155Z,102016.16
2019-02-05T04:25:25.782Z,102032.45
2019-02-05T04:28:03.105Z,102030.88
2019-02-05T04:30:37.614Z,102021.18
2019-02-05T04:33:21.613Z,102023.51
2019-02-05T04:36:01.555Z,102026.19
2019-02-05T04:38:35.780Z,102022.02
2019-02-05T04:41:13.400Z,102024.00
2019-02-05T04:43:56.967Z,102025.45
2019-02-05T04:46:48.037Z,102024.25
2019-02-05T04:49:43.952Z,102014.30
2019-02-05T04:52:15.569Z,102019.95
2019-02-05T04:54:52.756Z,102022.03
2019-02-05T04:57:57.100Z,102024.98
2019-02-05T05:00:44.074Z,102023.02
2019-02-05T05:03:24.914Z,102017.38
2019-02-05T05:06:02.201Z,102004.88
2019-02-05T05:08:39.587Z,102009.30
2019-02-05T05:11:08.114Z,102014.17
2019-02-05T05:13:36.536Z,102022.02
2019-02-05T05:16:05.357Z,102022.14
2019-02-05T05:18:33.788Z,102030.72
2019-02-05T05:21:02.211Z,102037.95
2019-02-05T05:23:30.656Z,102034.02
2019-02-05T05:25:59.250Z,102035.37
2019-02-05T05:28:27.770Z,102034.89
2019-02-05T05:30:56.539Z,102053.91
2019-02-05T05:33:25.067Z,102051.07
2019-02-05T05:35:53.488Z,102053.66
2019-02-05T05:38:21.941Z,102057.32
2019-02-05T05:40:50.374Z,102050.20
2019-02-05T05:43:18.828Z,102046.66
2019-02-05T05:45:47.252Z,102049.49
2019-02-05T05:48:15.887Z,102048.00
2019-02-05T05:50:44.339Z,102049.49
2019-02-05T05:53:12.843Z,102045.67
2019-02-05T05:55:41.266Z,102060.14
2019-02-05T05:58:21.922Z,102061.00
2019-02-05T06:00:39.858Z,102061.27
2019-02-05T06:03:08.305Z,102067.52
2019-02-05T06:05:36.805Z,102072.04
2019-02-05T06:08:05.331Z,102068.97
2019-02-05T06:10:33.758Z,102067.37
2019-02-05T06:13:02.204Z,102057.94
2019-02-05T06:15:30.630Z,102063.83
2019-02-05T06:17:59.176Z,102061.37
2019-02-05T06:20:27.620Z,102063.20
2019-02-05T06:22:56.095Z,102063.21
2019-02-05T06:25:24.549Z,102061.61
2019-02-05T06:27:53.047Z,102074.13
2019-02-05T06:30:21.498Z,102077.80
2019-02-05T06:32:49.920Z,102078.53
2019-02-05T06:35:18.371Z,102082.23
2019-02-05T06:37:46.888Z,102074.99
2019-02-05T06:40:18.436Z,102082.35
2019-02-05T06:42:46.930Z,102084.05
2019-02-05T06:45:16.117Z,102087.56
2019-02-05T06:47:44.612Z,102089.03
2019-02-05T06:50:14.301Z,102091.83
2019-02-05T06:52:42.806Z,102097.94
2019-02-05T06:55:13.674Z,102101.72
2019-02-05T06:57:42.164Z,102106.38
2019-02-05T07:00:16.527Z,102111.77
2019-02-05T07:02:45.009Z,102127.81
2019-02-05T07:05:13.796Z,102127.58
2019-02-05T07:07:42.366Z,102124.52
2019-02-05T07:10:17.243Z,102139.11
2019-02-05T07:12:45.738Z,102135.53
2019-02-05T07:15:14.251Z,102133.23
2019-02-05T07:17:49.731Z,102141.42
2019-02-05T07:20:15.399Z,102143.52
2019-02-05T07:22:44.064Z,102134.35
2019-02-05T07:25:15.602Z,102139.25
2019-02-05T07:27:44.559Z,102139.88
2019-02-05T07:30:19.037Z,102139.38
2019-02-05T07:32:47.536Z,102141.98
2019-02-05T07:35:16.059Z,102137.44
2019-02-05T07:37:44.555Z,102141.74
2019-02-05T07:40:15.812Z,102140.13
2019-02-05T07:42:44.238Z,102142.59
2019-02-05T07:45:18.056Z,102147.66
2019-02-05T07:47:46.484Z,102149.13
2019-02-05T07:50:24.055Z,102150.84
2019-02-05T07:52:52.618Z,102154.16
2019-02-05T07:55:21.247Z,102154.52
2019-02-05T07:57:49.918Z,102163.86
2019-02-05T08:00:29.505Z,102168.98
2019-02-05T08:02:58.101Z,102171.94
2019-02-05T08:05:31.064Z,102169.02
2019-02-05T08:08:00.391Z,102173.19
2019-02-05T08:10:29.458Z,102173.67
2019-02-05T08:12:57.970Z,102165.22
2019-02-05T08:15:28.933Z,102174.06
2019-02-05T08:17:57.426Z,102174.66
2019-02-05T08:20:25.912Z,102170.61
2019-02-05T08:22:54.498Z,102179.69
2019-02-05T08:25:22.923Z,102178.84
2019-02-05T08:27:51.522Z,102180.05
2019-02-05T08:30:29.082Z,102178.47
2019-02-05T08:32:57.662Z,102188.30
2019-02-05T08:35:26.223Z,102187.08
2019-02-05T08:37:54.670Z,102172.98
2019-02-05T08:40:24.130Z,102182.18
2019-02-05T08:42:52.586Z,102185.75
2019-02-05T08:45:24.289Z,102185.75
2019-02-05T08:47:52.743Z,102186.73
2019-02-05T08:50:23.699Z,102175.19
2019-02-05T08:52:52.151Z,102183.04
2019-02-05T08:55:21.512Z,102179.50
2019-02-05T08:57:51.906Z,102186.98
2019-02-05T09:00:22.469Z,102183.05
2019-02-05T09:02:51.158Z,102186.47
2019-02-05T09:05:19.653Z,102193.95
2019-02-05T09:07:48.233Z,102193.59
2019-02-05T09:10:22.808Z,102193.22
2019-02-05T09:12:51.366Z,102196.42
2019-02-05T09:15:29.125Z,102196.42
2019-02-05T09:17:50.036Z,102202.17
2019-02-05T09:20:20.970Z,102202.30
2019-02-05T09:22:49.483Z,102212.02
2019-02-05T09:25:19.243Z,102217.52
2019-02-05T09:27:47.762Z,102216.92
2019-02-05T09:30:25.368Z,102218.87
2019-02-05T09:32:56.130Z,102217.75
2019-02-05T09:35:24.624Z,102225.39
2019-02-05T09:37:53.072Z,102225.39
2019-02-05T09:40:27.126Z,102237.04
2019-02-05T09:42:55.645Z,102233.35
2019-02-05T09:45:24.911Z,102234.56
2019-02-05T09:47:53.698Z,102227.72
2019-02-05T09:50:22.126Z,102235.94
2019-02-05T09:52:50.579Z,102236.92
2019-02-05T09:55:20.336Z,102240.84
2019-02-05T09:57:48.827Z,102239.13
2019-02-05T10:00:20.186Z,102242.19
2019-02-05T10:02:48.680Z,102251.78
2019-02-05T10:05:20.042Z,102254.11
2019-02-05T10:07:48.737Z,102252.39
2019-02-05T10:10:19.135Z,102253.25
2019-02-05T10:12:47.695Z,102253.11
2019-02-05T10:15:21.555Z,102253.11
2019-02-05T10:17:50.053Z,102252.16
2019-02-05T10:20:19.246Z,102258.41
2019-02-05T10:22:49.013Z,102258.41
2019-02-05T10:25:17.899Z,102259.38
2019-02-05T10:27:46.322Z,102266.64
2019-02-05T10:30:26.983Z,102266.64
2019-02-05T10:32:55.640Z,102259.51
2019-02-05T10:35:24.235Z,102256.42
2019-02-05T10:37:52.899Z,102256.42
2019-02-05T10:40:22.968Z,102263.19
2019-02-05T10:42:51.463Z,102260.58
2019-02-05T10:45:24.586Z,102260.58
2019-02-05T10:47:53.324Z,102259.84
2019-02-05T10:50:22.360Z,102254.80
2019-02-05T10:52:50.856Z,102254.80
2019-02-05T10:55:20.865Z,102254.80
2019-02-05T10:57:51.277Z,102259.45
2019-02-05T11:00:25.890Z,102256.14
2019-02-05T11:02:54.652Z,102256.14
2019-02-05T11:05:25.713Z,102252.95
2019-02-05T11:07:54.277Z,102241.80
2019-02-05T11:10:22.856Z,102250.87
2019-02-05T11:12:51.269Z,102244.23
2019-02-05T11:15:24.954Z,102249.39
2019-02-05T11:17:53.465Z,102251.73
2019-02-05T11:20:23.755Z,102250.49
2019-02-05T11:22:52.249Z,102254.80
2019-02-05T11:25:20.783Z,102239.30
2019-02-05T11:27:49.278Z,102248.64
2019-02-05T11:30:25.772Z,102248.64
2019-02-05T11:32:54.491Z,102257.00
2019-02-05T11:35:23.031Z,102254.44
2019-02-05T11:37:52.101Z,102258.13
2019-02-05T11:40:23.699Z,102257.00
2019-02-05T11:42:52.218Z,102257.00
2019-02-05T11:45:21.074Z,102252.67
2019-02-05T11:47:50.157Z,102243.28
2019-02-05T11:50:18.952Z,102251.28
2019-02-05T11:52:47.469Z,102256.27
2019-02-05T11:55:24.404Z,102249.45
2019-02-05T11:57:52.855Z,102243.48
2019-02-05T12:00:32.675Z,102243.48
2019-02-05T12:02:56.762Z,102250.50
2019-02-05T12:05:25.184Z,102250.50
2019-02-05T12:07:54.105Z,102250.25
2019-02-05T12:10:22.606Z,102252.81
2019-02-05T12:12:51.085Z,102253.55
2019-02-05T12:15:19.995Z,102249.30
2019-02-05T12:17:48.444Z,102250.05
2019-02-05T12:20:18.407Z,102247.69
2019-02-05T12:22:48.091Z,102247.94
2019-02-05T12:25:26.322Z,102238.05
2019-02-05T12:27:54.766Z,102245.62
2019-02-05T12:30:44.394Z,102245.62
2019-02-05T12:33:05.689Z,102239.86
2019-02-05T12:35:34.243Z,102239.86
2019-02-05T12:38:03.028Z,102246.22
2019-02-05T12:40:31.593Z,102235.78
2019-02-05T12:43:00.108Z,102235.78
2019-02-05T12:45:33.652Z,102234.71
2019-02-05T12:48:02.172Z,102234.71
2019-02-05T12:50:38.518Z,102235.66
2019-02-05T12:53:07.203Z,102235.91
2019-02-05T12:55:35.862Z,102235.91
2019-02-05T12:58:05.149Z,102243.83
2019-02-05T13:00:36.006Z,102243.83
2019-02-05T13:03:05.209Z,102242.09
2019-02-05T13:05:33.694Z,102241.32
2019-02-05T13:08:05.305Z,102231.15
2019-02-05T13:10:35.241Z,102228.11
2019-02-05T13:13:04.116Z,102245.78
2019-02-05T13:15:32.675Z,102245.78
2019-02-05T13:18:01.188Z,102252.73
2019-02-05T13:20:31.027Z,102248.77
2019-02-05T13:23:00.339Z,102248.77
2019-02-05T13:25:30.714Z,102236.43
2019-02-05T13:27:59.393Z,102252.39
2019-02-05T13:30:32.822Z,102252.23
2019-02-05T13:33:01.402Z,102252.23
2019-02-05T13:35:30.564Z,102260.17
2019-02-05T13:37:59.161Z,102253.52
2019-02-05T13:40:28.944Z,102261.78
2019-02-05T13:42:57.913Z,102261.78
2019-02-05T13:45:31.624Z,102246.01
2019-02-05T13:48:00.298Z,102264.61
2019-02-05T13:50:33.509Z,102260.05
2019-02-05T13:53:01.479Z,102260.05
2019-02-05T13:55:33.099Z,102264.27
2019-02-05T13:58:01.758Z,102271.78
2019-02-05T14:00:32.819Z,102266.98
2019-02-05T14:03:01.309Z,102274.59
2019-02-05T14:05:29.801Z,102281.11
2019-02-05T14:07:58.302Z,102274.35
2019-02-05T14:10:29.763Z,102282.60
2019-02-05T14:12:58.322Z,102282.60
2019-02-05T14:15:29.110Z,102265.52
2019-02-05T14:17:58.544Z,102281.00
2019-02-05T14:20:27.504Z,102276.60
2019-02-05T14:22:56.000Z,102277.64
2019-02-05T14:25:24.508Z,102282.45
2019-02-05T14:27:53.003Z,102282.45
2019-02-05T14:30:28.225Z,102288.65
2019-02-05T14:32:56.642Z,102289.39
2019-02-05T14:35:25.437Z,102292.09
2019-02-05T14:37:54.022Z,102292.09
2019-02-05T14:40:25.375Z,102305.14
2019-02-05T14:42:54.041Z,102301.69
2019-02-05T14:45:22.556Z,102301.69
2019-02-05T14:47:51.037Z,102304.04
2019-02-05T14:50:31.226Z,102307.73
2019-02-05T14:52:59.863Z,102302.58
2019-02-05T14:55:28.301Z,102306.52
2019-02-05T14:57:56.970Z,102310.80
2019-02-05T15:00:34.441Z,102316.20
2019-02-05T15:03:05.209Z,102308.11
2019-02-05T15:05:33.650Z,102308.11
2019-02-05T15:08:02.139Z,102313.02
2019-02-05T15:10:30.660Z,102314.36
2019-02-05T15:12:59.159Z,102311.56
2019-02-05T15:15:29.048Z,102313.77
2019-02-05T15:17:57.709Z,102313.77
2019-02-05T15:20:40.762Z,102319.18
2019-02-05T15:23:09.346Z,102317.81
2019-02-05T15:25:37.938Z,102318.31
2019-02-05T15:28:06.896Z,102318.31
2019-02-05T15:30:43.462Z,102322.61
2019-02-05T15:33:27.948Z,102321.25
2019-02-05T15:35:58.038Z,102321.25
2019-02-05T15:38:26.836Z,102321.25
2019-02-05T15:40:55.428Z,102320.16
2019-02-05T15:43:23.916Z,102321.15
2019-02-05T15:45:52.354Z,102321.65
2019-02-05T15:48:20.775Z,102325.45
2019-02-05T15:50:49.221Z,102318.08
2019-02-05T15:53:17.644Z,102323.86
2019-02-05T15:55:46.307Z,102319.05
2019-02-05T15:58:14.763Z,102323.95
2019-02-05T16:00:43.189Z,102328.02
2019-02-05T16:03:11.712Z,102328.02
2019-02-05T16:05:40.207Z,102329.73
2019-02-05T16:08:08.727Z,102329.73
2019-02-05T16:10:37.599Z,102321.88
2019-02-05T16:13:06.036Z,102321.88
2019-02-05T16:15:34.521Z,102334.63
2019-02-05T16:18:03.052Z,102334.27
2019-02-05T16:20:31.483Z,102334.27
2019-02-05T16:22:59.929Z,102334.14
2019-02-05T16:25:28.360Z,102334.25
2019-02-05T16:27:57.086Z,102340.17
2019-02-05T16:30:30.089Z,102343.25
2019-02-05T16:32:58.607Z,102344.70
2019-02-05T16:35:27.096Z,102343.02
2019-02-05T16:37:56.006Z,102344.97
2019-02-05T16:40:35.528Z,102347.18
2019-02-05T16:43:04.312Z,102351.12
2019-02-05T16:45:32.874Z,102349.36
2019-02-05T16:48:01.388Z,102350.98
2019-02-05T16:50:32.822Z,102353.33
2019-02-05T16:53:01.279Z,102355.28
2019-02-05T16:55:30.145Z,102355.28
2019-02-05T16:57:58.596Z,102355.42
2019-02-05T17:00:31.879Z,102356.75
2019-02-05T17:03:00.454Z,102356.52
2019-02-05T17:05:31.183Z,102359.22
2019-02-05T17:07:59.874Z,102353.80
2019-02-05T17:10:28.580Z,102354.55
2019-02-05T17:12:57.269Z,102362.41
2019-02-05T17:15:25.764Z,102357.61
2019-02-05T17:17:54.374Z,102362.16
2019-02-05T17:20:28.945Z,102361.92
2019-02-05T17:23:00.296Z,102370.16
2019-02-05T17:25:28.900Z,102365.00
2019-02-05T17:27:59.563Z,102360.31
2019-02-05T17:30:33.539Z,102367.92
2019-02-05T17:33:01.984Z,102372.98
2019-02-05T17:35:30.403Z,102363.13
2019-02-05T17:37:58.903Z,102368.06
2019-02-05T17:40:27.895Z,102362.79
2019-02-05T17:42:56.495Z,102368.42
2019-02-05T17:45:28.115Z,102371.14
2019-02-05T17:47:56.772Z,102371.88
2019-02-05T17:50:25.367Z,102369.03
2019-02-05T17:52:53.781Z,102368.30
2019-02-05T17:55:22.388Z,102373.47
2019-02-05T17:57:51.036Z,102375.30
2019-02-05T18:00:32.706Z,102376.66
2019-02-05T18:03:01.467Z,102375.06
2019-02-05T18:05:30.055Z,102377.88
2019-02-05T18:07:58.997Z,102387.61
2019-02-05T18:10:28.485Z,102386.73
2019-02-05T18:12:57.389Z,102386.73
2019-02-05T18:15:37.035Z,102387.84
2019-02-05T18:18:06.794Z,102392.86
2019-02-05T18:20:35.753Z,102389.44
2019-02-05T18:23:04.817Z,102392.61
2019-02-05T18:25:33.398Z,102388.70
2019-02-05T18:28:02.057Z,102391.17
2019-02-05T18:30:38.393Z,102400.12
2019-02-05T18:33:07.661Z,102401.60
2019-02-05T18:35:36.554Z,102405.04
2019-02-05T18:38:16.420Z,102410.31
2019-02-05T18:40:45.216Z,102411.04
2019-02-05T18:43:14.372Z,102411.93
2019-02-05T18:45:43.156Z,102416.55
2019-02-05T18:48:12.218Z,102413.39
2019-02-05T18:50:40.906Z,102416.22
2019-02-05T18:53:11.896Z,102421.48
2019-02-05T18:55:43.275Z,102425.69
2019-02-05T18:58:12.440Z,102421.12
2019-02-05T19:00:43.529Z,102415.10
2019-02-05T19:03:16.287Z,102419.29
2019-02-05T19:05:43.031Z,102422.47
2019-02-05T19:08:12.014Z,102421.96
2019-02-05T19:10:41.192Z,102421.36
2019-02-05T19:13:09.966Z,102424.30
2019-02-05T19:15:40.086Z,102415.94
2019-02-05T19:18:09.746Z,102428.70
2019-02-05T19:20:38.775Z,102430.30
2019-02-05T19:23:09.351Z,102422.83
2019-02-05T19:25:45.589Z,102422.83
2019-02-05T19:28:15.997Z,102426.91
2019-02-05T19:30:46.687Z,102422.95
2019-02-05T19:33:26.376Z,102427.47
2019-02-05T19:35:46.516Z,102427.47
2019-02-05T19:38:15.861Z,102425.55
2019-02-05T19:40:44.399Z,102425.40
2019-02-05T19:43:13.192Z,102429.19
2019-02-05T19:45:53.068Z,102437.00
2019-02-05T19:48:29.854Z,102429.30
2019-02-05T19:50:59.225Z,102425.97
2019-02-05T19:53:28.411Z,102425.97
2019-02-05T19:55:57.937Z,102427.81
2019-02-05T19:58:26.845Z,102420.53
2019-02-05T20:00:56.102Z,102425.34
2019-02-05T20:03:25.288Z,102429.13
2019-02-05T20:05:54.300Z,102423.77
2019-02-05T20:08:23.511Z,102430.34
2019-02-05T20:10:52.670Z,102434.27
2019-02-05T20:13:21.594Z,102427.65
2019-02-05T20:15:51.354Z,102427.38
2019-02-05T20:18:20.755Z,102431.61
2019-02-05T20:20:50.041Z,102423.70
2019-02-05T20:23:19.063Z,102427.43
2019-02-05T20:25:48.079Z,102423.47
2019-02-05T20:28:17.522Z,102428.02
2019-02-05T20:30:46.423Z,102425.23
2019-02-05T20:33:15.823Z,102432.52
2019-02-05T20:35:45.024Z,102434.05
2019-02-05T20:38:14.065Z,102441.88
2019-02-05T20:40:42.976Z,102435.05
2019-02-05T20:43:11.765Z,102445.70
2019-02-05T20:45:40.830Z,102444.44
2019-02-05T20:48:10.171Z,102447.31
2019-02-05T20:50:39.702Z,102449.17
2019-02-05T20:53:13.909Z,102449.97
2019-02-05T20:55:40.284Z,102453.43
2019-02-05T20:58:09.633Z,102452.27
2019-02-05T21:00:38.691Z,102456.13
2019-02-05T21:03:07.729Z,102460.31
2019-02-05T21:05:36.472Z,102454.42
2019-02-05T21:08:05.464Z,102456.50
2019-02-05T21:10:34.338Z,102454.78
2019-02-05T21:13:02.934Z,102456.98
2019-02-05T21:15:31.594Z,102472.34
2019-02-05T21:18:00.402Z,102468.51
2019-02-05T21:20:34.047Z,102470.03
2019-02-05T21:23:03.026Z,102478.50
2019-02-05T21:25:31.581Z,102478.00
2019-02-05T21:28:00.063Z,102480.61
2019-02-05T21:30:28.587Z,102482.28
2019-02-05T21:32:57.144Z,102478.86
2019-02-05T21:35:25.765Z,102480.58
2019-02-05T21:37:54.260Z,102484.09
2019-02-05T21:40:26.799Z,102484.80
2019-02-05T21:42:55.453Z,102493.63
2019-02-05T21:45:32.561Z,102492.18
2019-02-05T21:48:01.059Z,102498.05
2019-02-05T21:50:29.555Z,102498.05
2019-02-05T21:52:58.484Z,102491.73
2019-02-05T21:55:27.760Z,102497.42
2019-02-05T21:57:56.549Z,102501.52
2019-02-05T22:00:30.168Z,102505.38
2019-02-05T22:02:58.943Z,102516.63
2019-02-05T22:05:29.214Z,102516.36
2019-02-05T22:07:57.712Z,102516.63
2019-02-05T22:10:26.342Z,102514.52
2019-02-05T22:12:54.864Z,102509.34
2019-02-05T22:15:23.660Z,102510.26
2019-02-05T22:17:52.152Z,102513.17
2019-02-05T22:20:26.239Z,102508.78
2019-02-05T22:22:56.231Z,102507.63
2019-02-05T22:25:29.949Z,102503.64
2019-02-05T22:27:58.435Z,102500.80
2019-02-05T22:30:29.491Z,102501.78
2019-02-05T22:32:58.083Z,102498.44
2019-02-05T22:35:26.694Z,102496.87
2019-02-05T22:37:55.569Z,102496.75
2019-02-05T22:40:25.753Z,102498.92
2019-02-05T22:42:54.320Z,102496.34
2019-02-05T22:45:28.423Z,102497.14
2019-02-05T22:47:56.917Z,102495.19
2019-02-05T22:50:28.058Z,102493.66
2019-02-05T22:52:56.628Z,102485.81
2019-02-05T22:55:25.160Z,102494.59
2019-02-05T22:57:53.645Z,102496.84
2019-02-05T23:00:48.564Z,102495.64
2019-02-05T23:03:19.392Z,102500.87
2019-02-05T23:06:22.993Z,102494.17
2019-02-05T23:08:52.260Z,102492.89
2019-02-05T23:11:40.628Z,102494.39
2019-02-05T23:14:09.121Z,102490.55
2019-02-05T23:16:37.638Z,102494.35
2019-02-05T23:19:06.369Z,102499.03
2019-02-05T23:21:34.819Z,102495.31
2019-02-05T23:24:03.484Z,102492.62
2019-02-05T23:26:31.934Z,102499.94
2019-02-05T23:29:00.351Z,102499.47
2019-02-05T23:31:28.804Z,102505.43
2019-02-05T23:33:57.229Z,102499.98
2019-02-05T23:36:25.685Z,102501.88
2019-02-05T23:38:54.385Z,102502.65
2019-02-05T23:41:22.837Z,102501.18
2019-02-05T23:43:51.284Z,102508.41
2019-02-05T23:46:19.696Z,102505.34
2019-02-05T23:48:48.121Z,102516.05
2019-02-05T23:51:16.655Z,102513.69
2019-02-05T23:53:45.078Z,102511.81
2019-02-05T23:56:25.255Z,102511.58
2019-02-05T23:58:43.870Z,102506.44
